Time;durP1;ratioP1;P1;durP2;ratioP2;P2;SDS_P1;SDS_P2;PMS_P1;PMS_P2;Temp;Humidity;BMP_temperature;BMP_pressure;BME280_temperature;BME280_humidity;BME280_pressure;Samples;Min_cycle;Max_cycle;Signal;HPM_P1;HPM_P2
2022/03/19 00:02:24;;;;;;;;;;;5.50;80.70;;;;;;5178583;28;19925;-81
2022/03/19 00:04:56;;;;;;;;;;;5.50;80.20;;;;;;5192095;28;20411;-80
2022/03/19 00:07:29;;;;;;;;;;;5.50;80.20;;;;;;5173346;28;20447;-80
2022/03/19 00:10:01;;;;;;;;;;;5.50;81.10;;;;;;5192736;28;21133;-81
2022/03/19 00:12:33;;;;;;;;;;;5.40;80.90;;;;;;5172063;28;19936;-79
2022/03/19 00:15:10;;;;;;;;;;;5.40;81.10;;;;;;5189093;28;19925;-80
2022/03/19 00:17:42;;;;;;;;;;;5.40;80.90;;;;;;5172524;28;19925;-82
2022/03/19 00:20:14;;;;;;;;;;;5.40;80.70;;;;;;5191532;28;20012;-81
2022/03/19 00:22:47;;;;;;;;;;;5.40;81.00;;;;;;5189526;28;19924;-80
2022/03/19 00:25:19;;;;;;;;;;;5.40;81.00;;;;;;5201691;28;19921;-81
2022/03/19 00:27:51;;;;;;;;;;;5.30;80.20;;;;;;5190196;28;19924;-81
2022/03/19 00:30:23;;;;;;;;;;;5.30;81.00;;;;;;5188011;28;19936;-80
2022/03/19 00:32:56;;;;;;;;;;;5.30;80.10;;;;;;5190678;28;19940;-80
2022/03/19 00:35:28;;;;;;;;;;;5.20;80.40;;;;;;5183551;28;20304;-80
2022/03/19 00:38:01;;;;;;;;;;;5.20;81.50;;;;;;5181955;28;19925;-80
2022/03/19 00:40:34;;;;;;;;;;;5.20;81.30;;;;;;5184723;28;19929;-80
2022/03/19 00:43:07;;;;;;;;;;;5.20;81.60;;;;;;5190060;28;19925;-80
2022/03/19 00:45:39;;;;;;;;;;;5.20;81.90;;;;;;5187987;28;19925;-79
2022/03/19 00:48:11;;;;;;;;;;;5.10;82.30;;;;;;5193664;28;19940;-82
2022/03/19 00:50:44;;;;;;;;;;;5.10;82.20;;;;;;5199934;28;20298;-81
2022/03/19 00:53:16;;;;;;;;;;;5.10;82.30;;;;;;5183514;28;19928;-82
2022/03/19 00:55:52;;;;;;;;;;;5.10;82.10;;;;;;5196970;28;19921;-79
2022/03/19 00:58:25;;;;;;;;;;;5.10;82.60;;;;;;5174278;28;19932;-82
2022/03/19 01:00:57;;;;;;;;;;;5.10;82.50;;;;;;5196435;28;20011;-79
2022/03/19 01:03:30;;;;;;;;;;;5.00;81.60;;;;;;5185474;28;20000;-80
2022/03/19 01:06:03;;;;;;;;;;;5.00;82.40;;;;;;5182726;28;19925;-82
2022/03/19 01:08:35;;;;;;;;;;;4.90;82.10;;;;;;5185737;28;19922;-81
2022/03/19 01:11:08;;;;;;;;;;;4.90;83.20;;;;;;5196969;28;20410;-80
2022/03/19 01:13:40;;;;;;;;;;;4.90;82.80;;;;;;5191924;28;19929;-82
2022/03/19 01:16:12;;;;;;;;;;;4.80;83.10;;;;;;5201842;28;20392;-82
2022/03/19 01:18:49;;;;;;;;;;;4.80;82.90;;;;;;5192079;28;20303;-82
2022/03/19 01:21:21;;;;;;;;;;;4.70;83.30;;;;;;5195216;28;19925;-81
2022/03/19 01:23:53;;;;;;;;;;;4.70;83.40;;;;;;5195666;28;19928;-83
2022/03/19 01:26:25;;;;;;;;;;;4.60;83.80;;;;;;5193222;28;19932;-82
2022/03/19 01:28:58;;;;;;;;;;;4.60;83.90;;;;;;5184520;28;20448;-82
2022/03/19 01:31:30;;;;;;;;;;;4.50;83.70;;;;;;5169752;28;19925;-81
2022/03/19 01:34:02;;;;;;;;;;;4.50;84.00;;;;;;5194419;28;19940;-82
2022/03/19 01:36:34;;;;;;;;;;;4.40;84.10;;;;;;5197584;28;19940;-81
2022/03/19 01:39:07;;;;;;;;;;;4.30;84.10;;;;;;5195307;28;19929;-83
2022/03/19 01:41:40;;;;;;;;;;;4.30;84.10;;;;;;5195906;28;19929;-83
2022/03/19 01:44:19;;;;;;;;;;;4.20;84.50;;;;;;5197558;28;19929;-82
2022/03/19 01:46:55;;;;;;;;;;;4.30;85.30;;;;;;5191989;28;19921;-82
2022/03/19 01:49:28;;;;;;;;;;;4.20;85.10;;;;;;5199845;28;20359;-83
2022/03/19 01:52:00;;;;;;;;;;;4.20;85.10;;;;;;5192857;28;19944;-82
2022/03/19 01:54:34;;;;;;;;;;;4.20;85.10;;;;;;5183897;28;19932;-81
2022/03/19 01:57:07;;;;;;;;;;;4.20;85.50;;;;;;5202284;28;20309;-82
2022/03/19 01:59:39;;;;;;;;;;;4.10;84.90;;;;;;5191768;28;19921;-80
2022/03/19 02:02:11;;;;;;;;;;;4.10;85.20;;;;;;5179759;28;19925;-82
2022/03/19 02:04:45;;;;;;;;;;;4.00;85.50;;;;;;5179791;28;19924;-80
2022/03/19 02:07:17;;;;;;;;;;;4.00;85.80;;;;;;5200465;28;19931;-83
2022/03/19 02:09:49;;;;;;;;;;;4.00;86.00;;;;;;5199473;28;19932;-81
2022/03/19 02:12:22;;;;;;;;;;;3.90;85.80;;;;;;5199775;28;19929;-80
2022/03/19 02:14:54;;;;;;;;;;;3.90;85.80;;;;;;5198157;28;20407;-80
2022/03/19 02:17:26;;;;;;;;;;;3.90;86.10;;;;;;5199812;28;20270;-82
2022/03/19 02:20:00;;;;;;;;;;;3.80;86.10;;;;;;5169164;28;19932;-83
2022/03/19 02:22:32;;;;;;;;;;;3.80;86.30;;;;;;5182208;28;19948;-83
2022/03/19 02:28:15;;;;;;;;;;;3.70;86.90;;;;;;5165530;28;19929;-81
2022/03/19 02:30:48;;;;;;;;;;;3.60;86.10;;;;;;5184283;28;19932;-81
2022/03/19 02:33:20;;;;;;;;;;;3.60;86.20;;;;;;5191733;28;19940;-82
2022/03/19 02:35:53;;;;;;;;;;;3.50;86.40;;;;;;5196261;28;19922;-81
2022/03/19 02:38:25;;;;;;;;;;;3.50;86.50;;;;;;5195585;28;20445;-79
2022/03/19 02:40:57;;;;;;;;;;;3.50;86.90;;;;;;5194335;28;19932;-83
2022/03/19 02:43:29;;;;;;;;;;;3.40;86.90;;;;;;5186424;28;19923;-82
2022/03/19 02:46:02;;;;;;;;;;;3.40;86.20;;;;;;5194992;28;19917;-84
2022/03/19 02:48:34;;;;;;;;;;;3.30;87.00;;;;;;5196406;28;19924;-81
2022/03/19 02:51:08;;;;;;;;;;;3.20;86.90;;;;;;5164449;28;20644;-80
2022/03/19 02:53:40;;;;;;;;;;;3.20;87.40;;;;;;5186626;28;19932;-81
2022/03/19 02:56:13;;;;;;;;;;;3.20;87.80;;;;;;5186138;28;20981;-80
2022/03/19 02:58:45;;;;;;;;;;;3.10;87.90;;;;;;5196735;28;19980;-82
2022/03/19 03:01:19;;;;;;;;;;;3.10;88.20;;;;;;5200190;28;20504;-80
2022/03/19 03:03:51;;;;;;;;;;;3.10;88.20;;;;;;5211657;28;19925;-80
2022/03/19 03:06:24;;;;;;;;;;;3.00;88.20;;;;;;5183355;28;19925;-82
2022/03/19 03:08:56;;;;;;;;;;;3.10;88.20;;;;;;5198731;28;19921;-80
2022/03/19 03:11:29;;;;;;;;;;;3.00;88.20;;;;;;5196013;28;19925;-81
2022/03/19 03:14:01;;;;;;;;;;;3.00;88.90;;;;;;5205611;28;19929;-82
2022/03/19 03:16:34;;;;;;;;;;;2.90;88.70;;;;;;5198367;28;19921;-82
2022/03/19 03:19:07;;;;;;;;;;;2.90;88.70;;;;;;5197038;28;19932;-78
2022/03/19 03:21:40;;;;;;;;;;;2.90;88.70;;;;;;5209232;28;19929;-79
2022/03/19 03:24:13;;;;;;;;;;;2.80;89.30;;;;;;5193551;28;19933;-81
2022/03/19 03:26:45;;;;;;;;;;;2.80;88.90;;;;;;5160641;28;19930;-83
2022/03/19 03:29:18;;;;;;;;;;;2.70;89.60;;;;;;5168804;28;19926;-82
2022/03/19 03:31:50;;;;;;;;;;;2.70;90.00;;;;;;5192815;28;19925;-81
2022/03/19 03:34:22;;;;;;;;;;;2.70;90.40;;;;;;5190528;28;19925;-80
2022/03/19 03:36:54;;;;;;;;;;;2.70;90.30;;;;;;5189222;28;19921;-81
2022/03/19 03:39:26;;;;;;;;;;;2.70;90.30;;;;;;5196481;28;19925;-80
2022/03/19 03:41:59;;;;;;;;;;;2.80;90.40;;;;;;5196634;28;19929;-82
2022/03/19 03:44:31;;;;;;;;;;;2.80;90.20;;;;;;5196789;28;19917;-83
2022/03/19 03:47:06;;;;;;;;;;;2.80;90.30;;;;;;5196501;28;19929;-82
2022/03/19 03:49:39;;;;;;;;;;;2.80;90.40;;;;;;5201518;28;20286;-81
2022/03/19 03:52:13;;;;;;;;;;;2.80;90.40;;;;;;5197188;28;19925;-81
2022/03/19 03:54:45;;;;;;;;;;;2.70;89.90;;;;;;5196656;28;20372;-83
2022/03/19 03:57:18;;;;;;;;;;;2.70;90.40;;;;;;5204152;28;19937;-80
2022/03/19 03:59:50;;;;;;;;;;;2.70;90.20;;;;;;5194249;28;20131;-82
2022/03/19 04:02:22;;;;;;;;;;;2.70;90.50;;;;;;5184138;28;19925;-81
2022/03/19 04:04:55;;;;;;;;;;;2.60;90.50;;;;;;5190635;28;19936;-80
2022/03/19 04:07:27;;;;;;;;;;;2.60;90.60;;;;;;5194683;28;19922;-80
2022/03/19 04:10:00;;;;;;;;;;;2.50;90.50;;;;;;5199484;28;19929;-80
2022/03/19 04:12:32;;;;;;;;;;;2.50;90.60;;;;;;5168920;28;20285;-80
2022/03/19 04:15:05;;;;;;;;;;;2.50;90.80;;;;;;5193693;28;19921;-81
2022/03/19 04:17:37;;;;;;;;;;;2.50;90.90;;;;;;5197454;28;19929;-82
2022/03/19 04:20:10;;;;;;;;;;;2.40;90.80;;;;;;5192057;28;19929;-81
2022/03/19 04:22:43;;;;;;;;;;;2.50;91.00;;;;;;5191004;28;19932;-82
2022/03/19 04:25:19;;;;;;;;;;;2.40;91.10;;;;;;5168841;28;19940;-82
2022/03/19 04:27:55;;;;;;;;;;;2.40;91.40;;;;;;5185474;28;20491;-82
2022/03/19 04:30:28;;;;;;;;;;;2.40;91.60;;;;;;5179581;28;19921;-83
2022/03/19 04:33:01;;;;;;;;;;;2.40;91.70;;;;;;5167700;28;19980;-82
2022/03/19 04:38:25;;;;;;;;;;;2.30;92.10;;;;;;5200220;28;19917;-83
2022/03/19 04:40:59;;;;;;;;;;;2.30;92.10;;;;;;5197113;28;20514;-81
2022/03/19 04:43:31;;;;;;;;;;;2.30;92.10;;;;;;5193860;28;19992;-83
2022/03/19 04:46:04;;;;;;;;;;;2.30;92.40;;;;;;5181364;28;19917;-82
2022/03/19 04:48:36;;;;;;;;;;;2.20;91.80;;;;;;5194353;28;19929;-83
2022/03/19 04:51:11;;;;;;;;;;;2.20;92.90;;;;;;5195811;28;19921;-82
2022/03/19 04:53:51;;;;;;;;;;;2.20;92.80;;;;;;5194806;28;20005;-80
2022/03/19 04:56:25;;;;;;;;;;;2.20;92.90;;;;;;5196532;28;19917;-82
2022/03/19 04:58:58;;;;;;;;;;;2.10;93.00;;;;;;5187371;28;19929;-80
2022/03/19 05:01:31;;;;;;;;;;;2.10;92.90;;;;;;5199857;28;19928;-81
2022/03/19 05:04:04;;;;;;;;;;;2.10;93.30;;;;;;5199780;28;19921;-82
2022/03/19 05:06:36;;;;;;;;;;;2.10;93.30;;;;;;5188740;28;19926;-82
2022/03/19 05:11:59;;;;;;;;;;;2.00;93.90;;;;;;5195808;28;19925;-82
2022/03/19 05:14:31;;;;;;;;;;;2.00;93.50;;;;;;5182416;28;19921;-81
2022/03/19 05:17:04;;;;;;;;;;;2.00;94.40;;;;;;5188936;28;19916;-82
2022/03/19 05:19:36;;;;;;;;;;;2.00;94.50;;;;;;5190933;28;20237;-82
2022/03/19 05:22:08;;;;;;;;;;;1.90;94.50;;;;;;5187313;28;19948;-82
2022/03/19 05:24:41;;;;;;;;;;;1.90;94.20;;;;;;5178126;28;20372;-82
2022/03/19 05:27:13;;;;;;;;;;;1.90;94.60;;;;;;5171610;28;20372;-84
2022/03/19 05:29:46;;;;;;;;;;;1.90;95.30;;;;;;5190278;28;19925;-83
2022/03/19 05:32:19;;;;;;;;;;;1.80;95.40;;;;;;5196804;28;19925;-82
2022/03/19 05:34:51;;;;;;;;;;;1.80;95.70;;;;;;5201272;28;19936;-82
2022/03/19 05:37:27;;;;;;;;;;;1.80;95.70;;;;;;5182064;28;19924;-81
2022/03/19 05:40:07;;;;;;;;;;;1.80;96.00;;;;;;5186502;28;19936;-79
2022/03/19 05:42:40;;;;;;;;;;;1.90;96.40;;;;;;5174804;28;20423;-81
2022/03/19 05:45:16;;;;;;;;;;;1.90;96.60;;;;;;5190424;28;19926;-81
2022/03/19 05:47:49;;;;;;;;;;;1.90;95.80;;;;;;5189533;28;19936;-81
2022/03/19 05:50:23;;;;;;;;;;;1.90;95.80;;;;;;5175809;28;19929;-81
2022/03/19 05:52:56;;;;;;;;;;;1.90;96.60;;;;;;5176288;28;19925;-82
2022/03/19 05:55:29;;;;;;;;;;;2.00;96.00;;;;;;5174934;28;20013;-81
2022/03/19 05:58:02;;;;;;;;;;;1.90;95.70;;;;;;5206087;28;19917;-81
2022/03/19 06:00:40;;;;;;;;;;;2.00;96.40;;;;;;5203507;28;19925;-82
2022/03/19 06:03:18;;;;;;;;;;;2.00;97.10;;;;;;5201169;28;20307;-82
2022/03/19 06:05:55;;;;;;;;;;;2.00;96.50;;;;;;5174033;28;19929;-80
2022/03/19 06:08:28;;;;;;;;;;;2.10;96.40;;;;;;5173942;28;19925;-81
2022/03/19 06:11:01;;;;;;;;;;;2.10;97.10;;;;;;5182343;28;20849;-82
2022/03/19 06:13:35;;;;;;;;;;;2.20;96.80;;;;;;5179539;28;19921;-81
2022/03/19 06:16:09;;;;;;;;;;;2.20;96.80;;;;;;5181613;28;19925;-79
2022/03/19 06:18:46;;;;;;;;;;;2.20;96.90;;;;;;5182626;28;19922;-80
2022/03/19 06:21:23;;;;;;;;;;;2.20;96.50;;;;;;5189398;28;20368;-80
2022/03/19 06:23:59;;;;;;;;;;;2.30;97.10;;;;;;5186249;28;20410;-78
2022/03/19 06:26:32;;;;;;;;;;;2.30;97.20;;;;;;5199643;28;19939;-78
2022/03/19 06:29:15;;;;;;;;;;;2.30;97.00;;;;;;5178423;28;19922;-81
2022/03/19 06:31:49;;;;;;;;;;;2.30;97.10;;;;;;5176876;28;19940;-78
2022/03/19 06:34:30;;;;;;;;;;;2.40;97.10;;;;;;5186491;28;19925;-78
2022/03/19 06:37:23;;;;;;;;;;;2.40;97.80;;;;;;5189864;28;19921;-81
2022/03/19 06:39:57;;;;;;;;;;;2.50;97.20;;;;;;5202051;28;19925;-82
2022/03/19 06:42:38;;;;;;;;;;;2.50;97.90;;;;;;5205725;28;19923;-82
2022/03/19 06:45:10;;;;;;;;;;;2.50;98.00;;;;;;5186016;28;19925;-83
2022/03/19 06:47:43;;;;;;;;;;;2.60;98.70;;;;;;5207601;28;19917;-80
2022/03/19 06:50:16;;;;;;;;;;;2.60;99.10;;;;;;5183245;28;19936;-81
2022/03/19 06:52:49;;;;;;;;;;;2.70;98.70;;;;;;5170368;28;19929;-80
2022/03/19 06:55:24;;;;;;;;;;;2.70;99.20;;;;;;5169155;28;19942;-82
2022/03/19 06:57:57;;;;;;;;;;;2.90;99.10;;;;;;5135932;28;19925;-80
2022/03/19 07:00:29;;;;;;;;;;;3.00;98.90;;;;;;5179192;28;19928;-81
2022/03/19 07:03:01;;;;;;;;;;;3.00;98.20;;;;;;5180309;28;20935;-81
2022/03/19 07:05:34;;;;;;;;;;;3.10;98.50;;;;;;5148206;28;19929;-81
2022/03/19 07:08:09;;;;;;;;;;;3.20;98.20;;;;;;5177923;28;19929;-82
2022/03/19 07:11:07;;;;;;;;;;;3.20;98.20;;;;;;5185852;28;19929;-82
2022/03/19 07:13:39;;;;;;;;;;;3.30;98.50;;;;;;5193474;28;19931;-82
2022/03/19 07:16:12;;;;;;;;;;;3.40;97.90;;;;;;5182118;28;19924;-82
2022/03/19 07:18:44;;;;;;;;;;;3.60;97.50;;;;;;5187140;28;19928;-81
2022/03/19 07:21:16;;;;;;;;;;;3.60;97.30;;;;;;5176059;28;19921;-82
2022/03/19 07:23:53;;;;;;;;;;;3.70;96.60;;;;;;5187646;28;20937;-83
2022/03/19 07:26:26;;;;;;;;;;;3.80;96.00;;;;;;5186150;28;21016;-83
2022/03/19 07:29:00;;;;;;;;;;;3.90;95.90;;;;;;5191426;28;19932;-81
2022/03/19 07:31:32;;;;;;;;;;;4.00;95.10;;;;;;5169657;28;20152;-82
2022/03/19 07:34:04;;;;;;;;;;;4.10;95.00;;;;;;5151509;28;19932;-82
2022/03/19 07:36:37;;;;;;;;;;;4.20;94.70;;;;;;5155774;28;19929;-83
2022/03/19 07:39:09;;;;;;;;;;;4.20;93.00;;;;;;5179124;28;19930;-82
2022/03/19 07:41:52;;;;;;;;;;;4.30;92.60;;;;;;5183130;28;19936;-82
2022/03/19 07:44:31;;;;;;;;;;;4.40;91.00;;;;;;5178873;28;19929;-81
2022/03/19 07:47:03;;;;;;;;;;;4.50;91.20;;;;;;5178364;28;20264;-82
2022/03/19 07:49:36;;;;;;;;;;;4.60;90.00;;;;;;5182899;28;19924;-82
2022/03/19 07:52:09;;;;;;;;;;;4.60;89.00;;;;;;5198242;28;19937;-84
2022/03/19 07:54:41;;;;;;;;;;;4.70;89.80;;;;;;5182519;28;20515;-81
2022/03/19 07:57:13;;;;;;;;;;;4.80;90.20;;;;;;5184314;28;19921;-81
2022/03/19 07:59:46;;;;;;;;;;;4.90;87.00;;;;;;5187705;28;19925;-83
2022/03/19 08:02:18;;;;;;;;;;;4.90;87.10;;;;;;5188915;28;19925;-83
2022/03/19 08:04:50;;;;;;;;;;;4.90;86.50;;;;;;5186218;28;19937;-83
2022/03/19 08:07:23;;;;;;;;;;;5.00;86.90;;;;;;5193668;28;19937;-83
2022/03/19 08:09:55;;;;;;;;;;;5.10;86.60;;;;;;5193092;28;20415;-82
2022/03/19 08:12:27;;;;;;;;;;;5.20;86.80;;;;;;5183711;28;19925;-82
2022/03/19 08:15:02;;;;;;;;;;;5.30;85.70;;;;;;5187119;28;20418;-81
2022/03/19 08:17:35;;;;;;;;;;;5.40;84.10;;;;;;5173316;28;19925;-82
2022/03/19 08:20:08;;;;;;;;;;;5.50;83.00;;;;;;5182382;28;19925;-82
2022/03/19 08:22:40;;;;;;;;;;;5.50;81.50;;;;;;5183332;28;19936;-83
2022/03/19 08:25:15;;;;;;;;;;;5.60;81.50;;;;;;5189529;28;19932;-83
2022/03/19 08:27:47;;;;;;;;;;;5.70;81.40;;;;;;5199068;28;19921;-83
2022/03/19 08:30:19;;;;;;;;;;;5.80;80.30;;;;;;5182798;28;19925;-82
2022/03/19 08:32:52;;;;;;;;;;;5.80;79.30;;;;;;5175035;28;19962;-82
2022/03/19 08:35:24;;;;;;;;;;;5.90;79.20;;;;;;5176703;28;19928;-82
2022/03/19 08:40:47;;;;;;;;;;;6.00;77.50;;;;;;5192573;28;19929;-83
2022/03/19 08:43:21;;;;;;;;;;;6.10;78.20;;;;;;5167658;28;19929;-82
2022/03/19 08:45:54;;;;;;;;;;;6.10;76.90;;;;;;5181692;28;19929;-82
2022/03/19 08:48:26;;;;;;;;;;;6.20;76.40;;;;;;5170639;28;20198;-81
2022/03/19 08:53:53;;;;;;;;;;;6.20;75.40;;;;;;5170972;28;21224;-83
2022/03/19 08:56:25;;;;;;;;;;;6.30;77.40;;;;;;5185297;28;20004;-82
2022/03/19 08:58:58;;;;;;;;;;;6.40;75.60;;;;;;5187006;28;19925;-82
2022/03/19 09:01:30;;;;;;;;;;;6.50;73.80;;;;;;5182312;28;19925;-84
2022/03/19 09:04:08;;;;;;;;;;;6.60;74.40;;;;;;5184009;28;19936;-83
2022/03/19 09:06:41;;;;;;;;;;;6.60;72.30;;;;;;5187000;28;19929;-84
2022/03/19 09:09:14;;;;;;;;;;;6.70;74.20;;;;;;5194884;28;19936;-82
2022/03/19 09:11:48;;;;;;;;;;;6.70;74.20;;;;;;5177753;28;19925;-85
2022/03/19 09:14:32;;;;;;;;;;;6.80;73.80;;;;;;5199628;28;19936;-82
2022/03/19 09:17:04;;;;;;;;;;;6.90;73.10;;;;;;5169328;28;19925;-81
2022/03/19 09:19:37;;;;;;;;;;;7.00;73.50;;;;;;5183815;28;20387;-82
2022/03/19 09:22:09;;;;;;;;;;;7.10;72.10;;;;;;5193395;28;19922;-82
2022/03/19 09:24:42;;;;;;;;;;;7.20;71.00;;;;;;5162607;28;19928;-81
2022/03/19 09:27:14;;;;;;;;;;;7.30;71.70;;;;;;5204090;28;19936;-81
2022/03/19 09:29:46;;;;;;;;;;;7.40;70.40;;;;;;5187936;28;19932;-83
2022/03/19 09:32:19;;;;;;;;;;;7.40;69.50;;;;;;5158777;28;19929;-83
2022/03/19 09:34:54;;;;;;;;;;;7.40;70.60;;;;;;5171424;28;19925;-84
2022/03/19 09:37:27;;;;;;;;;;;7.50;70.00;;;;;;5186209;28;19951;-85
2022/03/19 09:40:00;;;;;;;;;;;7.60;71.10;;;;;;5179502;28;19935;-85
2022/03/19 09:42:35;;;;;;;;;;;7.70;70.90;;;;;;5195090;28;19932;-84
2022/03/19 09:45:08;;;;;;;;;;;7.80;68.50;;;;;;5190386;28;19925;-85
2022/03/19 09:47:40;;;;;;;;;;;7.80;69.40;;;;;;5191627;28;19929;-83
2022/03/19 09:50:13;;;;;;;;;;;7.80;69.40;;;;;;5177592;28;19928;-84
2022/03/19 09:52:53;;;;;;;;;;;7.90;69.60;;;;;;5187373;28;20561;-85
2022/03/19 09:55:34;;;;;;;;;;;8.00;68.80;;;;;;5192834;28;19925;-85
2022/03/19 09:58:06;;;;;;;;;;;8.00;68.30;;;;;;5185568;28;19932;-86
2022/03/19 10:00:43;;;;;;;;;;;8.00;67.80;;;;;;5183612;28;19925;-85
2022/03/19 10:03:22;;;;;;;;;;;8.00;66.60;;;;;;5195085;28;19924;-84
2022/03/19 10:09:18;;;;;;;;;;;8.20;67.90;;;;;;5196554;28;19921;-85
2022/03/19 10:11:52;;;;;;;;;;;8.30;66.80;;;;;;5208685;28;19926;-83
2022/03/19 10:14:32;;;;;;;;;;;8.30;66.50;;;;;;5190687;28;19933;-84
2022/03/19 10:17:04;;;;;;;;;;;8.40;65.50;;;;;;5175252;28;19924;-84
2022/03/19 10:19:59;;;;;;;;;;;8.40;63.70;;;;;;5171728;28;19933;-83
2022/03/19 10:22:34;;;;;;;;;;;8.40;62.20;;;;;;5195030;28;19921;-85
2022/03/19 10:25:11;;;;;;;;;;;8.50;61.90;;;;;;5192197;28;19932;-85
2022/03/19 10:27:44;;;;;;;;;;;8.50;61.40;;;;;;5171950;28;20484;-84
2022/03/19 10:30:28;;;;;;;;;;;8.50;61.80;;;;;;5182164;28;19925;-84
2022/03/19 10:33:00;;;;;;;;;;;8.60;61.60;;;;;;5150886;28;19936;-83
2022/03/19 10:35:39;;;;;;;;;;;8.70;62.70;;;;;;5182097;28;19940;-83
2022/03/19 10:38:20;;;;;;;;;;;8.70;62.20;;;;;;5176952;28;19925;-82
2022/03/19 10:40:53;;;;;;;;;;;8.90;61.30;;;;;;5179586;28;20407;-82
2022/03/19 10:43:27;;;;;;;;;;;8.80;58.70;;;;;;5184643;28;19936;-83
2022/03/19 10:46:01;;;;;;;;;;;8.90;60.90;;;;;;5189017;28;20328;-82
2022/03/19 10:48:33;;;;;;;;;;;8.90;59.20;;;;;;5190096;28;19929;-81
2022/03/19 10:51:09;;;;;;;;;;;8.90;59.80;;;;;;5181637;28;19925;-82
2022/03/19 10:53:42;;;;;;;;;;;9.00;57.90;;;;;;5192776;28;19929;-81
2022/03/19 10:56:15;;;;;;;;;;;9.00;58.40;;;;;;5195766;28;19925;-81
2022/03/19 10:59:04;;;;;;;;;;;8.90;59.30;;;;;;5197564;28;19925;-82
2022/03/19 11:01:37;;;;;;;;;;;9.00;56.70;;;;;;5193887;28;19936;-82
2022/03/19 11:04:10;;;;;;;;;;;9.00;56.80;;;;;;5193928;28;19930;-83
2022/03/19 11:06:49;;;;;;;;;;;9.00;57.20;;;;;;5205087;28;19921;-84
2022/03/19 11:09:24;;;;;;;;;;;9.10;58.60;;;;;;5201264;28;19936;-82
2022/03/19 11:11:58;;;;;;;;;;;9.20;57.70;;;;;;5190619;28;19929;-83
2022/03/19 11:14:31;;;;;;;;;;;9.30;57.50;;;;;;5183133;28;19936;-82
2022/03/19 11:17:26;;;;;;;;;;;9.40;55.90;;;;;;5182254;28;19929;-84
2022/03/19 11:20:04;;;;;;;;;;;9.40;56.60;;;;;;5185012;28;19925;-83
2022/03/19 11:22:41;;;;;;;;;;;9.40;57.20;;;;;;5189850;28;19936;-82
2022/03/19 11:25:13;;;;;;;;;;;9.40;56.40;;;;;;5184765;28;20531;-83
2022/03/19 11:27:47;;;;;;;;;;;9.60;56.30;;;;;;5175518;28;19936;-82
2022/03/19 11:30:21;;;;;;;;;;;9.60;56.50;;;;;;5189340;28;19925;-84
2022/03/19 11:33:26;;;;;;;;;;;9.50;55.10;;;;;;5198859;28;19929;-84
2022/03/19 11:35:58;;;;;;;;;;;9.60;56.40;;;;;;5176874;28;19932;-84
2022/03/19 11:38:32;;;;;;;;;;;9.60;53.80;;;;;;5195083;28;19929;-83
2022/03/19 11:41:22;;;;;;;;;;;9.70;54.10;;;;;;5187750;28;19929;-82
2022/03/19 11:44:14;;;;;;;;;;;9.70;55.10;;;;;;5182116;28;19937;-83
2022/03/19 11:46:57;;;;;;;;;;;9.70;55.30;;;;;;5186381;28;19936;-84
2022/03/19 11:49:55;;;;;;;;;;;9.80;56.60;;;;;;5180063;28;19921;-83
2022/03/19 11:52:27;;;;;;;;;;;9.90;55.90;;;;;;5190634;28;19925;-82
2022/03/19 11:54:59;;;;;;;;;;;10.00;53.80;;;;;;5177019;28;19923;-83
2022/03/19 11:57:55;;;;;;;;;;;10.00;54.50;;;;;;5187416;28;19929;-83
2022/03/19 12:00:28;;;;;;;;;;;10.00;53.50;;;;;;5167495;28;19929;-82
2022/03/19 12:03:03;;;;;;;;;;;10.00;54.30;;;;;;5186058;28;20388;-83
2022/03/19 12:05:38;;;;;;;;;;;10.10;55.40;;;;;;5193747;28;19932;-82
2022/03/19 12:08:12;;;;;;;;;;;10.10;55.30;;;;;;5170523;28;19940;-85
2022/03/19 12:10:57;;;;;;;;;;;10.10;53.10;;;;;;5182591;28;19936;-83
2022/03/19 12:13:30;;;;;;;;;;;10.00;54.20;;;;;;5197021;28;19929;-82
2022/03/19 12:16:04;;;;;;;;;;;10.00;54.50;;;;;;5189957;28;19940;-83
2022/03/19 12:18:41;;;;;;;;;;;10.00;53.40;;;;;;5194642;28;19960;-82
2022/03/19 12:21:15;;;;;;;;;;;10.00;51.80;;;;;;5166082;28;19940;-82
2022/03/19 12:23:54;;;;;;;;;;;9.90;52.20;;;;;;5152813;28;19924;-83
2022/03/19 12:26:35;;;;;;;;;;;9.90;52.90;;;;;;5184534;28;19937;-82
2022/03/19 12:29:09;;;;;;;;;;;9.90;51.60;;;;;;5177003;28;19925;-82
2022/03/19 12:31:44;;;;;;;;;;;9.80;53.00;;;;;;5191323;28;19930;-83
2022/03/19 12:34:24;;;;;;;;;;;9.90;52.20;;;;;;5189831;28;20448;-82
2022/03/19 12:36:58;;;;;;;;;;;9.90;52.70;;;;;;5200374;28;19935;-83
2022/03/19 12:39:31;;;;;;;;;;;10.00;52.30;;;;;;5194952;28;20548;-82
2022/03/19 12:42:03;;;;;;;;;;;9.90;52.30;;;;;;5196930;28;19929;-84
2022/03/19 12:44:38;;;;;;;;;;;9.90;51.30;;;;;;5152398;28;19936;-83
2022/03/19 12:47:10;;;;;;;;;;;9.90;51.50;;;;;;5193562;28;19925;-83
2022/03/19 12:49:50;;;;;;;;;;;9.90;52.20;;;;;;5197520;28;19925;-82
2022/03/19 12:52:23;;;;;;;;;;;9.90;51.90;;;;;;5189665;28;19936;-84
2022/03/19 12:54:57;;;;;;;;;;;10.00;52.00;;;;;;5181895;28;19928;-82
2022/03/19 12:57:31;;;;;;;;;;;10.00;51.40;;;;;;5157125;28;20599;-83
2022/03/19 13:00:04;;;;;;;;;;;10.00;51.20;;;;;;5174971;28;19925;-83
2022/03/19 13:02:47;;;;;;;;;;;9.90;52.00;;;;;;5174295;28;19948;-85
2022/03/19 13:05:19;;;;;;;;;;;9.90;52.70;;;;;;5191373;28;20384;-83
2022/03/19 13:08:05;;;;;;;;;;;9.90;52.40;;;;;;5186046;28;19921;-83
2022/03/19 13:10:49;;;;;;;;;;;9.90;52.80;;;;;;5207795;28;19925;-84
2022/03/19 13:13:21;;;;;;;;;;;10.00;52.00;;;;;;5188037;28;19932;-82
2022/03/19 13:15:54;;;;;;;;;;;10.00;52.40;;;;;;5193200;28;19936;-84
2022/03/19 13:18:30;;;;;;;;;;;10.00;51.70;;;;;;5191396;28;19929;-83
2022/03/19 13:21:04;;;;;;;;;;;10.00;50.60;;;;;;5198326;28;19944;-83
2022/03/19 13:23:40;;;;;;;;;;;10.00;51.00;;;;;;5196827;28;19925;-82
2022/03/19 13:26:16;;;;;;;;;;;10.00;51.00;;;;;;5208189;23;19940;-50
2022/03/19 13:28:58;;;;;;;;;;;10.10;50.30;;;;;;5165547;28;19952;-50
2022/03/19 13:31:44;;;;;;;;;;;10.00;47.80;;;;;;5151105;28;20824;-51
2022/03/19 13:34:17;;;;;;;;;;;9.90;47.00;;;;;;5153806;28;19929;-51
2022/03/19 13:37:05;;;;;;;;;;;9.90;47.50;;;;;;5161683;28;20445;-52
2022/03/19 13:39:41;;;;;;;;;;;9.90;47.70;;;;;;5165165;28;19936;-53
2022/03/19 13:42:18;;;;;;;;;;;9.90;48.30;;;;;;5150858;28;19936;-53
2022/03/19 13:45:13;;;;;;;;;;;9.90;48.20;;;;;;5166337;28;19936;-51
2022/03/19 13:47:46;;;;;;;;;;;9.90;48.90;;;;;;5148500;28;19929;-50
2022/03/19 13:50:19;;;;;;;;;;;9.90;49.10;;;;;;5162991;28;20281;-52
2022/03/19 13:52:56;;;;;;;;;;;10.00;48.40;;;;;;5160491;28;19925;-53
2022/03/19 13:55:28;;;;;;;;;;;10.10;48.60;;;;;;5158634;28;19936;-53
2022/03/19 13:58:03;;;;;;;;;;;10.20;46.60;;;;;;5155319;28;20405;-52
2022/03/19 14:00:39;;;;;;;;;;;10.10;48.20;;;;;;5158685;28;19930;-50
2022/03/19 14:03:13;;;;;;;;;;;10.10;46.90;;;;;;5151493;28;19936;-48
2022/03/19 14:05:50;;;;;;;;;;;10.20;47.30;;;;;;5153015;28;20385;-49
2022/03/19 14:08:24;;;;;;;;;;;10.10;48.20;;;;;;5155415;28;19929;-53
2022/03/19 14:10:57;;;;;;;;;;;10.20;48.00;;;;;;5159959;28;19929;-52
2022/03/19 14:13:38;;;;;;;;;;;10.20;47.70;;;;;;5161344;28;19937;-52
2022/03/19 14:16:11;;;;;;;;;;;10.30;47.80;;;;;;5165276;28;19932;-51
2022/03/19 14:18:47;;;;;;;;;;;10.30;48.40;;;;;;5165999;28;20475;-51
2022/03/19 14:21:19;;;;;;;;;;;10.40;50.00;;;;;;5164278;28;20210;-52
2022/03/19 14:23:51;;;;;;;;;;;10.30;49.70;;;;;;5148899;28;20417;-53
2022/03/19 14:26:24;;;;;;;;;;;10.40;50.60;;;;;;5160129;28;19925;-52
2022/03/19 14:28:59;;;;;;;;;;;10.40;50.20;;;;;;5162566;28;20390;-52
2022/03/19 14:31:32;;;;;;;;;;;10.30;50.00;;;;;;5163739;28;19926;-53
2022/03/19 14:34:04;;;;;;;;;;;10.30;51.60;;;;;;5167496;28;19936;-52
2022/03/19 14:36:37;;;;;;;;;;;10.30;52.80;;;;;;5161755;28;19929;-52
2022/03/19 14:39:10;;;;;;;;;;;10.40;53.10;;;;;;5162928;28;21203;-52
2022/03/19 14:41:42;;;;;;;;;;;10.40;54.50;;;;;;5159850;28;19925;-52
2022/03/19 14:44:16;;;;;;;;;;;10.40;55.50;;;;;;5161754;28;19980;-54
2022/03/19 14:46:48;;;;;;;;;;;10.30;56.00;;;;;;5162533;28;20415;-52
2022/03/19 14:49:21;;;;;;;;;;;10.20;55.80;;;;;;5152798;28;20302;-54
2022/03/19 14:51:53;;;;;;;;;;;10.10;56.40;;;;;;5165716;28;19925;-51
2022/03/19 14:54:25;;;;;;;;;;;10.00;57.10;;;;;;5164788;28;19929;-50
2022/03/19 14:56:58;;;;;;;;;;;10.00;58.40;;;;;;5167644;28;20309;-50
2022/03/19 14:59:30;;;;;;;;;;;9.90;58.00;;;;;;5162500;28;19929;-58
2022/03/19 15:02:03;;;;;;;;;;;9.80;59.20;;;;;;5141428;28;20853;-53
2022/03/19 15:04:36;;;;;;;;;;;9.70;59.20;;;;;;5135443;28;19925;-50
2022/03/19 15:07:20;;;;;;;;;;;9.70;59.50;;;;;;5151550;28;19955;-52
2022/03/19 15:09:53;;;;;;;;;;;9.70;59.70;;;;;;5172896;28;19929;-52
2022/03/19 15:12:25;;;;;;;;;;;9.80;60.40;;;;;;5151374;28;19944;-52
2022/03/19 15:14:58;;;;;;;;;;;9.80;59.50;;;;;;5164178;28;19929;-53
2022/03/19 15:17:32;;;;;;;;;;;9.90;60.20;;;;;;5163162;28;21025;-50
2022/03/19 15:20:05;;;;;;;;;;;9.90;60.20;;;;;;5157986;28;19936;-52
2022/03/19 15:22:38;;;;;;;;;;;9.90;59.60;;;;;;5153467;28;19921;-51
2022/03/19 15:25:11;;;;;;;;;;;9.80;60.00;;;;;;5149931;28;19936;-49
2022/03/19 15:27:44;;;;;;;;;;;9.70;59.90;;;;;;5155562;28;20408;-53
2022/03/19 15:30:16;;;;;;;;;;;9.70;59.50;;;;;;5165800;28;19925;-50